KVCV/VCV METAR and TAF weather

Enter ICAO airport designator
Station Type Date Time Source
KVCV METAR 2022/05/26 04:15 UTC NOAA

KVCV 260415Z AUTO 00000KT 10SM CLR 27/04 A2994 RMK AO2


Station Type Date Time Source
KVCV Decoded METAR 2022/05/26 04:15 UTC NOAA

Victorville, Southern California Logistics Airport, CA, United States (KVCV) 34-35-50N 117-22-58W
May 26, 2022 - 12:15 AM EDT / 2022.05.26 0415 UTC
Wind: Calm:0
Visibility: 10 mile(s):0
Sky conditions: clear
Temperature: 80 F (27 C)
Dew Point: 39 F (4 C)
Relative Humidity: 22%
Pressure (altimeter): 29.94 in. Hg (1013 hPa)
ob: KVCV 260415Z AUTO 00000KT 10SM CLR 27/04 A2994 RMK AO2
cycle: 4

Station Type Date Time Source
KVCV TAF UTC NOAA

Error!

Example: see airport list